Detroit, Michigan
Traffic Map
Current Weather Conditions
Detroit, Michigan
Overcast Haze
Overcast

Feels Like: -2°
Wind Chill: -2° Ceiling: 3600
Heat Index: Visibility: 5mi
Dew Point: Wind: 10mph
Humidity: 93% Direction: 210° (SSW)
Pressure: 29.98in Gusts: 0mph
Raw Report DataCYQG 180800Z 21009KT 5SM BR BKN036 OVC067 02/01 A2998 RMK CU6AC2 SLP160
Traffic Incident Summary
Active as of:
Severity:
Category:
InformationThere was an issue retrieving the traffic information for this location. Please try a different location or try again shortly.
Advertisements